Miami, FL

2:24 AM EST on March 03, 2015 (GMT -0500)
Miami International | Change Station
CLOSE
Current Station
Airport
Location: Miami,
Elevation: 13 ft
Nearby Weather Stations

Elev 13 ft 25.79 °N, 80.32 °W | Updated 31 minutes ago

Clear
Clear
71 °F
Feels Like 71 °F
N
7
Wind Variable Wind from East

Today
High -- | Low -- °F
--% Chance of Precip.
Yesterday
High -- | Low -- °F
Precip. -- in
6:42 AM 6:23 PM
Waxing Gibbous, 95% visible
Pressure 30.18 in
Visibility 10.0 miles
Clouds Few 2500 ft
Dew Point 64 °F
Humidity 78%
Rainfall 0.00 in
Snow Depth Not available.
UV 0 out of 12
Pollen 10.10 out of 12
Air Quality Not available.
Flu Activity Not available.
METAR KMIA 030653Z 08006KT 10SM FEW025 22/18 A3018 RMK AO2 SLP218 T02170178 $

More Conditions Fewer Conditions

Pressure 30.18 in
Visibility 10.0 miles
Clouds Few 2500 ft
Dew Point 64 °F
Humidity 78%
Rainfall 0.00 in
Snow Depth Not available.
UV 0 out of 12
Pollen 10.10 out of 12
Air Quality Not available.
Flu Activity Not available.
METAR KMIA 030653Z 08006KT 10SM FEW025 22/18 A3018 RMK AO2 SLP218 T02170178 $

More Conditions Fewer Conditions

10-Day Weather Forecast

Almanac

Astronomy

Mar. 03, 2015 Rise Set
Actual Time
Civil Twilight
Nautical Twilight
Astronomical Twilight
Moon
Length of Visible Light
Length of Day
Tomorrow will be .
, % of the Moon is Illuminated

Today's Extremes

State Highs State Lows

Community

WunderPhotos

Upload Photos

1,802,073 photos uploaded!

WunderBlogs® & News

Nearby

Air Quality

  Air Quality AQ Index Pollutant
Not available.

Snow Depth

Station Depth Elevation

Earthquake Activity

City Distance Mag. Time & Date
Minimum magnitude displayed is 2.5.

Coastal Water Temperatures

Place Temperature

Nearby Weather Stations